createdAt,value
2023-01-20T00:01:31.388Z,7.91
2023-01-20T00:03:58.065Z,7.20
2023-01-20T00:06:25.395Z,6.45
2023-01-20T00:08:53.166Z,6.87
2023-01-20T00:11:20.772Z,7.78
2023-01-20T00:13:48.039Z,7.02
2023-01-20T00:16:22.224Z,7.44
2023-01-20T00:18:49.108Z,7.74
2023-01-20T00:21:15.636Z,7.48
2023-01-20T00:23:44.746Z,7.85
2023-01-20T00:26:11.378Z,7.61
2023-01-20T00:28:38.498Z,7.08
2023-01-20T00:31:05.308Z,6.55
2023-01-20T00:33:32.254Z,6.70
2023-01-20T00:36:06.166Z,6.69
2023-01-20T00:38:33.000Z,6.21
2023-01-20T00:41:02.708Z,6.40
2023-01-20T00:43:29.196Z,6.39
2023-01-20T00:45:59.782Z,6.60
2023-01-20T00:48:32.320Z,6.40
2023-01-20T00:51:09.105Z,6.72
2023-01-20T00:53:35.935Z,6.50
2023-01-20T00:56:02.526Z,7.00
2023-01-20T00:58:36.577Z,6.82
2023-01-20T01:01:03.225Z,6.86
2023-01-20T01:03:31.665Z,7.12
2023-01-20T01:05:58.202Z,7.26
2023-01-20T01:08:27.768Z,7.57
2023-01-20T01:10:56.072Z,7.78
2023-01-20T01:13:23.370Z,7.75
2023-01-20T01:15:50.262Z,7.04
2023-01-20T01:18:16.847Z,7.19
2023-01-20T01:20:43.865Z,7.10
2023-01-20T01:23:10.714Z,6.32
2023-01-20T01:25:37.599Z,6.79
2023-01-20T01:28:04.440Z,6.84
2023-01-20T01:30:30.995Z,7.07
2023-01-20T01:32:59.360Z,6.93
2023-01-20T01:35:27.639Z,7.49
2023-01-20T01:37:54.169Z,9.26
2023-01-20T01:40:22.024Z,9.97
2023-01-20T01:42:48.952Z,10.42
2023-01-20T01:45:16.030Z,10.66
2023-01-20T01:47:43.084Z,10.16
2023-01-20T01:50:12.020Z,10.07
2023-01-20T01:52:38.829Z,10.08
2023-01-20T01:55:06.237Z,9.81
2023-01-20T01:57:40.311Z,10.51
2023-01-20T02:00:07.313Z,9.75
2023-01-20T02:02:41.665Z,10.71
2023-01-20T02:05:09.142Z,11.00
2023-01-20T02:07:36.109Z,10.92
2023-01-20T02:10:03.430Z,11.43
2023-01-20T02:12:30.245Z,11.55
2023-01-20T02:14:57.104Z,11.35
2023-01-20T02:17:25.393Z,11.19
2023-01-20T02:19:52.136Z,11.30
2023-01-20T02:22:18.858Z,11.17
2023-01-20T02:24:46.229Z,10.65
2023-01-20T02:27:13.627Z,11.24
2023-01-20T02:29:40.398Z,10.48
2023-01-20T02:32:11.078Z,11.22
2023-01-20T02:34:37.716Z,10.88
2023-01-20T02:37:04.503Z,10.99
2023-01-20T02:39:31.801Z,12.37
2023-01-20T02:41:58.621Z,12.60
2023-01-20T02:44:25.492Z,12.87
2023-01-20T02:46:53.009Z,12.27
2023-01-20T02:52:02.263Z,12.80
2023-01-20T02:54:29.071Z,12.34
2023-01-20T02:56:55.580Z,12.84
2023-01-20T02:59:26.157Z,13.49
2023-01-20T03:01:54.014Z,13.23
2023-01-20T03:04:20.958Z,12.75
2023-01-20T03:06:47.484Z,13.44
2023-01-20T03:09:15.084Z,13.28
2023-01-20T03:11:41.938Z,13.38
2023-01-20T03:14:10.084Z,13.53
2023-01-20T03:16:38.259Z,12.85
2023-01-20T03:19:05.857Z,12.50
2023-01-20T03:21:32.836Z,11.99
2023-01-20T03:24:03.141Z,11.07
2023-01-20T03:26:32.264Z,10.10
2023-01-20T03:28:58.838Z,10.32
2023-01-20T03:31:27.268Z,9.56
2023-01-20T03:33:56.241Z,9.47
2023-01-20T03:36:23.091Z,9.76
2023-01-20T03:38:49.727Z,8.37
2023-01-20T03:41:24.794Z,8.54
2023-01-20T03:43:52.152Z,9.01
2023-01-20T03:46:25.922Z,8.48
2023-01-20T03:48:52.409Z,7.87
2023-01-20T03:51:18.908Z,8.22
2023-01-20T03:53:47.955Z,8.26
2023-01-20T03:56:16.595Z,8.51
2023-01-20T03:58:45.484Z,7.69
2023-01-20T04:01:18.207Z,6.75
2023-01-20T04:03:53.010Z,7.15
2023-01-20T04:06:19.966Z,6.78
2023-01-20T04:08:51.250Z,6.14
2023-01-20T04:11:18.071Z,6.42
2023-01-20T04:13:44.802Z,5.95
2023-01-20T04:16:11.529Z,5.46
2023-01-20T04:18:45.251Z,5.04
2023-01-20T04:21:12.504Z,5.19
2023-01-20T04:23:39.516Z,5.11
2023-01-20T04:26:10.919Z,5.18
2023-01-20T04:28:37.858Z,5.05
2023-01-20T04:31:07.755Z,5.27
2023-01-20T04:33:39.215Z,4.94
2023-01-20T04:36:10.263Z,4.96
2023-01-20T04:38:37.587Z,5.44
2023-01-20T04:41:04.282Z,5.17
2023-01-20T04:43:31.165Z,4.94
2023-01-20T04:45:57.845Z,5.13
2023-01-20T04:48:31.969Z,4.92
2023-01-20T04:51:06.062Z,4.63
2023-01-20T04:53:41.135Z,4.57
2023-01-20T04:56:11.459Z,4.68
2023-01-20T04:58:38.212Z,4.48
2023-01-20T05:01:05.034Z,4.49
2023-01-20T05:03:31.980Z,4.02
2023-01-20T05:05:58.813Z,4.06
2023-01-20T05:11:21.881Z,3.81
2023-01-20T05:13:50.073Z,4.20
2023-01-20T05:16:17.520Z,4.06
2023-01-20T05:18:47.306Z,3.88
2023-01-20T05:21:14.492Z,3.84
2023-01-20T05:23:44.773Z,3.82
2023-01-20T05:26:11.556Z,3.84
2023-01-20T05:28:38.488Z,3.64
2023-01-20T05:31:05.351Z,3.64
2023-01-20T05:33:32.690Z,3.61
2023-01-20T05:35:59.702Z,3.55
2023-01-20T05:38:27.013Z,3.35
2023-01-20T05:40:55.401Z,3.57
2023-01-20T05:43:26.339Z,3.30
2023-01-20T05:46:00.477Z,3.37
2023-01-20T05:51:12.363Z,3.59
2023-01-20T05:53:39.471Z,3.57
2023-01-20T05:56:06.958Z,3.26
2023-01-20T05:58:33.756Z,3.51
2023-01-20T06:01:01.132Z,3.51
2023-01-20T06:03:28.692Z,4.35
2023-01-20T06:05:57.776Z,4.33
2023-01-20T06:08:24.527Z,4.61
2023-01-20T06:10:51.276Z,4.76
2023-01-20T06:13:22.939Z,5.56
2023-01-20T06:15:58.570Z,5.45
2023-01-20T06:18:26.862Z,5.33
2023-01-20T06:20:53.519Z,5.23
2023-01-20T06:23:20.929Z,5.77
2023-01-20T06:25:48.421Z,6.06
2023-01-20T06:28:15.816Z,6.05
2023-01-20T06:30:42.950Z,6.45
2023-01-20T06:33:10.268Z,6.25
2023-01-20T06:35:38.561Z,6.02
2023-01-20T06:38:05.548Z,6.23
2023-01-20T06:40:32.630Z,6.33
2023-01-20T06:43:00.119Z,6.43
2023-01-20T06:45:27.868Z,6.34
2023-01-20T06:50:39.350Z,6.95
2023-01-20T06:53:07.011Z,7.31
2023-01-20T06:55:43.632Z,7.53
2023-01-20T06:58:14.239Z,7.66
2023-01-20T07:00:42.141Z,8.80
2023-01-20T07:03:13.175Z,9.88
2023-01-20T07:05:41.000Z,8.67
2023-01-20T07:11:18.268Z,10.07
2023-01-20T07:13:45.347Z,10.01
2023-01-20T07:18:56.369Z,11.40
2023-01-20T07:21:26.672Z,10.65
2023-01-20T07:23:53.559Z,11.11
2023-01-20T07:26:23.636Z,10.84
2023-01-20T07:28:50.480Z,11.90
2023-01-20T07:31:17.401Z,11.40
2023-01-20T07:33:44.290Z,11.69
2023-01-20T07:36:12.088Z,10.11
2023-01-20T07:38:43.720Z,10.08
2023-01-20T07:41:12.203Z,10.12
2023-01-20T07:43:39.481Z,8.26
2023-01-20T07:46:06.950Z,7.38
2023-01-20T07:48:45.052Z,5.69
2023-01-20T07:51:16.199Z,4.81
2023-01-20T07:59:56.902Z,5.31
2023-01-20T08:02:28.086Z,6.05
2023-01-20T08:04:55.028Z,7.52
2023-01-20T08:07:21.805Z,6.97
2023-01-20T08:09:48.429Z,6.90
2023-01-20T08:12:15.251Z,5.94
2023-01-20T08:14:41.983Z,3.82
2023-01-20T08:17:08.932Z,3.94
2023-01-20T08:19:35.670Z,3.74
2023-01-20T08:22:02.553Z,3.61
2023-01-20T08:24:29.330Z,3.42
2023-01-20T08:27:03.448Z,3.38
2023-01-20T08:29:29.908Z,3.81
2023-01-20T08:31:56.740Z,3.62
2023-01-20T08:34:25.941Z,2.92
2023-01-20T08:40:10.947Z,3.53
2023-01-20T08:42:39.004Z,3.51
2023-01-20T08:45:05.972Z,3.23
2023-01-20T08:47:45.440Z,3.40
2023-01-20T08:50:14.899Z,3.53
2023-01-20T08:52:43.925Z,3.30
2023-01-20T08:55:11.367Z,3.90
2023-01-20T08:57:38.194Z,3.88
2023-01-20T09:00:29.232Z,4.11
2023-01-20T09:03:23.280Z,3.43
2023-01-20T09:05:49.933Z,3.53
2023-01-20T09:08:16.733Z,3.63
2023-01-20T09:10:43.517Z,3.63
2023-01-20T09:13:10.273Z,3.90
2023-01-20T09:15:36.924Z,4.81
2023-01-20T09:18:04.372Z,3.94
2023-01-20T09:20:31.453Z,3.67
2023-01-20T09:23:04.518Z,3.39
2023-01-20T09:25:31.495Z,5.71
2023-01-20T09:27:58.204Z,3.87
2023-01-20T09:30:38.668Z,3.49
2023-01-20T09:33:07.615Z,3.55
2023-01-20T09:35:41.589Z,3.57
2023-01-20T09:38:08.503Z,4.48
2023-01-20T09:40:36.152Z,4.19
2023-01-20T09:43:05.125Z,3.48
2023-01-20T09:45:35.535Z,3.52
2023-01-20T09:48:04.226Z,3.77
2023-01-20T09:50:31.424Z,3.39
2023-01-20T09:52:57.928Z,3.56
2023-01-20T09:55:24.973Z,3.77
2023-01-20T09:57:52.636Z,4.59
2023-01-20T10:00:19.872Z,5.29
2023-01-20T10:02:48.529Z,3.80
2023-01-20T10:05:18.749Z,3.82
2023-01-20T10:07:46.158Z,3.94
2023-01-20T10:10:13.323Z,3.84
2023-01-20T10:12:40.003Z,3.34
2023-01-20T10:15:08.497Z,3.39
2023-01-20T10:17:35.935Z,3.43
2023-01-20T10:20:02.842Z,3.78
2023-01-20T10:22:29.714Z,3.96
2023-01-20T10:25:03.574Z,3.92
2023-01-20T10:27:30.215Z,3.75
2023-01-20T10:29:57.039Z,3.86
2023-01-20T10:32:27.397Z,4.11
2023-01-20T10:34:56.363Z,4.57
2023-01-20T10:37:23.232Z,4.89
2023-01-20T10:39:51.163Z,3.80
2023-01-20T10:42:17.709Z,3.91
2023-01-20T10:44:45.528Z,5.15
2023-01-20T10:47:14.537Z,4.99
2023-01-20T10:49:44.308Z,4.36
2023-01-20T10:52:16.250Z,4.64
2023-01-20T10:54:43.777Z,4.24
2023-01-20T10:57:10.631Z,4.45
2023-01-20T10:59:39.654Z,4.41
2023-01-20T11:02:12.427Z,6.29
2023-01-20T11:04:42.095Z,4.57
2023-01-20T11:07:09.908Z,4.61
2023-01-20T11:09:40.143Z,4.49
2023-01-20T11:12:07.062Z,4.41
2023-01-20T11:14:34.176Z,4.38
2023-01-20T11:17:03.796Z,4.23
2023-01-20T11:29:16.713Z,4.70
2023-01-20T11:31:43.666Z,4.70
2023-01-20T11:34:11.175Z,5.01
2023-01-20T11:36:38.290Z,4.76
2023-01-20T11:39:04.966Z,6.69
2023-01-20T11:41:34.012Z,6.53
2023-01-20T11:44:01.580Z,6.22
2023-01-20T11:46:28.287Z,6.17
2023-01-20T11:49:00.799Z,6.19
2023-01-20T11:51:27.732Z,6.74
2023-01-20T11:53:56.194Z,6.36
2023-01-20T11:56:23.670Z,7.88
2023-01-20T11:58:54.342Z,7.45
2023-01-20T12:01:23.360Z,7.64
2023-01-20T12:03:52.366Z,6.90
2023-01-20T12:06:26.623Z,7.55
2023-01-20T12:08:54.011Z,7.11
2023-01-20T12:11:21.173Z,5.74
2023-01-20T12:13:47.794Z,6.38
2023-01-20T12:16:16.447Z,6.89
2023-01-20T12:18:56.917Z,6.16
2023-01-20T12:21:37.884Z,6.22
2023-01-20T12:24:05.400Z,6.38
2023-01-20T12:26:32.031Z,6.18
2023-01-20T12:28:58.918Z,5.84
2023-01-20T12:31:26.385Z,6.12
2023-01-20T12:33:53.667Z,6.35
2023-01-20T12:36:20.805Z,7.15
2023-01-20T12:38:48.236Z,8.47
2023-01-20T12:41:17.141Z,8.25
2023-01-20T12:43:54.630Z,8.46
2023-01-20T12:46:22.904Z,8.78
2023-01-20T12:48:51.936Z,9.29
2023-01-20T12:51:18.586Z,9.93
2023-01-20T12:53:45.488Z,10.45
2023-01-20T12:56:15.505Z,11.42
2023-01-20T12:58:44.493Z,12.20
2023-01-20T13:01:13.765Z,11.27
2023-01-20T13:03:40.653Z,11.15
2023-01-20T13:06:09.915Z,11.68
2023-01-20T13:08:36.849Z,10.69
2023-01-20T13:11:04.540Z,8.95
2023-01-20T13:13:31.180Z,8.79
2023-01-20T13:15:57.966Z,8.54
2023-01-20T13:18:25.062Z,8.41
2023-01-20T13:20:51.920Z,9.72
2023-01-20T13:23:18.386Z,10.32
2023-01-20T13:25:45.653Z,10.88
2023-01-20T13:28:13.312Z,11.73
2023-01-20T13:30:40.757Z,11.37
2023-01-20T13:33:10.241Z,11.47
2023-01-20T13:35:37.185Z,10.78
2023-01-20T13:38:03.765Z,9.98
2023-01-20T13:40:30.558Z,10.35
2023-01-20T13:43:05.506Z,10.48
2023-01-20T13:45:32.362Z,10.73
2023-01-20T13:47:59.718Z,10.02
2023-01-20T13:50:28.511Z,10.73
2023-01-20T13:52:55.928Z,11.73
2023-01-20T13:55:22.788Z,11.29
2023-01-20T13:57:49.681Z,10.50
2023-01-20T14:00:18.922Z,10.50
2023-01-20T14:02:48.369Z,11.42
2023-01-20T14:05:15.264Z,11.01
2023-01-20T14:07:42.109Z,11.57
2023-01-20T14:10:08.778Z,11.49
2023-01-20T14:12:36.460Z,11.25
2023-01-20T14:15:10.386Z,12.78
2023-01-20T14:17:36.910Z,12.80
2023-01-20T14:20:03.967Z,13.97
2023-01-20T14:22:35.478Z,13.83
2023-01-20T14:25:04.609Z,12.76
2023-01-20T14:27:33.550Z,13.47
2023-01-20T14:30:01.012Z,13.01
2023-01-20T14:32:27.856Z,12.81
2023-01-20T14:34:55.295Z,13.10
2023-01-20T14:37:22.215Z,13.30
2023-01-20T14:39:49.098Z,13.22
2023-01-20T14:42:16.834Z,14.18
2023-01-20T14:44:43.421Z,14.34
2023-01-20T14:47:10.588Z,14.60
2023-01-20T14:49:38.011Z,14.69
2023-01-20T14:52:04.856Z,15.31
2023-01-20T14:54:31.622Z,16.15
2023-01-20T14:56:58.506Z,16.84
2023-01-20T14:59:27.501Z,18.43
2023-01-20T15:01:57.414Z,20.93
2023-01-20T15:04:26.854Z,21.12
2023-01-20T15:06:55.841Z,21.84
2023-01-20T15:09:23.893Z,23.84
2023-01-20T15:11:50.875Z,21.91
2023-01-20T15:14:19.488Z,23.39
2023-01-20T15:16:49.760Z,23.60
2023-01-20T15:19:16.548Z,24.21
2023-01-20T15:21:43.848Z,24.35
2023-01-20T15:24:10.745Z,24.18
2023-01-20T15:26:39.684Z,27.17
2023-01-20T15:29:06.571Z,29.21
2023-01-20T15:31:35.862Z,31.24
2023-01-20T15:34:03.297Z,31.77
2023-01-20T15:36:36.572Z,31.51
2023-01-20T15:39:03.434Z,31.46
2023-01-20T15:41:30.383Z,30.10
2023-01-20T15:43:57.267Z,29.73
2023-01-20T15:46:25.251Z,26.11
2023-01-20T15:48:52.021Z,25.86
2023-01-20T15:51:18.898Z,22.68
2023-01-20T15:53:51.542Z,21.46
2023-01-20T15:56:22.029Z,19.35
2023-01-20T15:58:50.262Z,19.98
2023-01-20T16:01:18.568Z,20.64
2023-01-20T16:06:54.264Z,24.82
2023-01-20T16:09:25.453Z,25.47
2023-01-20T16:11:52.504Z,25.46
2023-01-20T16:14:20.126Z,24.75
2023-01-20T16:16:46.668Z,24.96
2023-01-20T16:19:14.635Z,25.24
2023-01-20T16:21:42.375Z,23.82
2023-01-20T16:24:10.556Z,20.48
2023-01-20T16:26:37.150Z,19.41
2023-01-20T16:29:04.632Z,19.72
2023-01-20T16:31:33.579Z,18.53
2023-01-20T16:34:01.061Z,19.68
2023-01-20T16:36:27.786Z,17.05
2023-01-20T16:38:54.629Z,15.45
2023-01-20T16:41:29.211Z,15.40
2023-01-20T16:43:56.032Z,13.08
2023-01-20T16:46:23.332Z,10.87
2023-01-20T16:48:50.201Z,9.66
2023-01-20T16:51:17.783Z,9.18
2023-01-20T16:53:44.824Z,8.85
2023-01-20T16:56:11.633Z,9.06
2023-01-20T16:58:38.439Z,10.02
2023-01-20T17:01:05.480Z,10.12
2023-01-20T17:03:32.136Z,10.77
2023-01-20T17:06:00.988Z,10.70
2023-01-20T17:08:30.988Z,9.05
2023-01-20T17:10:57.822Z,10.50
2023-01-20T17:13:26.377Z,12.97
2023-01-20T17:15:53.185Z,11.21
2023-01-20T17:18:20.549Z,8.84
2023-01-20T17:20:47.372Z,10.54
2023-01-20T17:23:14.827Z,8.78
2023-01-20T17:25:43.716Z,10.12
2023-01-20T17:28:11.386Z,9.70
2023-01-20T17:30:38.330Z,9.76
2023-01-20T17:33:05.759Z,9.27
2023-01-20T17:35:32.523Z,10.06
2023-01-20T17:38:03.771Z,9.29
2023-01-20T17:40:34.293Z,8.91
2023-01-20T17:43:01.186Z,9.26
2023-01-20T17:45:28.203Z,9.77
2023-01-20T17:47:59.864Z,9.37
2023-01-20T17:50:34.970Z,8.66
2023-01-20T17:53:04.645Z,8.63
2023-01-20T17:55:33.056Z,9.16
2023-01-20T17:58:01.654Z,9.11
2023-01-20T18:03:20.235Z,9.70
2023-01-20T18:06:04.266Z,9.88
2023-01-20T18:08:35.165Z,10.23
2023-01-20T18:14:12.637Z,9.66
2023-01-20T18:16:41.913Z,8.38
2023-01-20T18:19:12.977Z,8.47
2023-01-20T18:21:46.874Z,8.89
2023-01-20T18:24:24.208Z,8.19
2023-01-20T18:26:57.959Z,7.42
2023-01-20T18:42:16.913Z,9.33
2023-01-20T18:44:44.326Z,10.29
2023-01-20T18:47:10.999Z,9.75
2023-01-20T18:49:41.334Z,9.01
2023-01-20T18:52:08.742Z,8.50
2023-01-20T18:54:36.225Z,8.45
2023-01-20T18:57:03.313Z,7.56
2023-01-20T18:59:35.413Z,9.32
2023-01-20T19:02:02.527Z,13.39
2023-01-20T19:04:30.228Z,10.46
2023-01-20T19:06:56.777Z,9.73
2023-01-20T19:09:23.813Z,9.08
2023-01-20T19:11:51.228Z,8.09
2023-01-20T19:14:18.701Z,8.64
2023-01-20T19:16:45.644Z,8.84
2023-01-20T19:19:14.515Z,8.64
2023-01-20T19:21:41.423Z,10.46
2023-01-20T19:24:08.331Z,10.53
2023-01-20T19:26:35.141Z,11.12
2023-01-20T19:29:04.393Z,12.07
2023-01-20T19:31:31.683Z,10.44
2023-01-20T19:34:04.477Z,10.21
2023-01-20T19:49:30.597Z,10.49
2023-01-20T20:04:59.655Z,10.16
2023-01-20T20:32:46.770Z,10.31
2023-01-20T21:00:04.795Z,7.94
2023-01-20T21:02:31.416Z,6.71
2023-01-20T21:04:59.717Z,6.56
2023-01-20T21:07:26.918Z,6.89
2023-01-20T21:09:56.590Z,6.30
2023-01-20T21:12:25.548Z,5.75
2023-01-20T21:14:52.389Z,5.80
2023-01-20T21:17:19.212Z,5.83
2023-01-20T21:19:48.118Z,6.41
2023-01-20T21:25:25.701Z,9.96
2023-01-20T21:27:53.077Z,9.84
2023-01-20T21:30:20.447Z,9.63
2023-01-20T21:32:47.589Z,10.03
2023-01-20T21:35:32.969Z,9.53
2023-01-20T21:38:14.102Z,9.19
2023-01-20T21:43:21.861Z,8.64
2023-01-20T21:45:48.741Z,8.33
2023-01-20T21:54:45.417Z,8.31
2023-01-20T21:57:25.086Z,7.55
2023-01-20T22:02:52.617Z,7.64
2023-01-20T22:11:01.481Z,6.49
2023-01-20T22:13:49.506Z,6.97
2023-01-20T22:16:18.527Z,7.65
2023-01-20T22:18:47.807Z,7.62
2023-01-20T22:21:21.643Z,6.92
2023-01-20T22:26:41.221Z,7.46
2023-01-20T22:29:08.183Z,7.03
2023-01-20T22:31:36.627Z,6.43
2023-01-20T22:34:04.319Z,6.35
2023-01-20T22:36:31.819Z,6.79
2023-01-20T22:39:00.123Z,8.10
2023-01-20T22:41:29.030Z,11.05
2023-01-20T22:43:58.019Z,10.64
2023-01-20T22:46:25.241Z,9.84
2023-01-20T22:48:52.570Z,7.84
2023-01-20T22:51:19.283Z,5.84
2023-01-20T22:53:49.369Z,5.56
2023-01-20T22:56:23.568Z,5.77
2023-01-20T22:58:50.179Z,6.15
2023-01-20T23:11:18.416Z,5.83
2023-01-20T23:13:45.290Z,5.74
2023-01-20T23:23:00.612Z,5.77
2023-01-20T23:25:27.532Z,6.03
2023-01-20T23:27:54.123Z,6.00
2023-01-20T23:30:23.033Z,5.91
2023-01-20T23:32:56.882Z,6.21
2023-01-20T23:35:24.280Z,5.79
2023-01-20T23:37:51.843Z,5.94
2023-01-20T23:40:19.264Z,6.16
2023-01-20T23:42:46.135Z,6.38
2023-01-20T23:45:12.917Z,6.00
2023-01-20T23:47:39.653Z,5.84
2023-01-20T23:50:07.131Z,6.12
2023-01-20T23:52:33.710Z,6.13
2023-01-20T23:55:00.867Z,6.37
2023-01-20T23:57:27.489Z,6.40
2023-01-20T23:59:53.950Z,5.97
